Time;durP1;ratioP1;P1;durP2;ratioP2;P2;SDS_P1;SDS_P2;PMS_P1;PMS_P2;Temp;Humidity;BMP_temperature;BMP_pressure;BME280_temperature;BME280_humidity;BME280_pressure;Samples;Min_cycle;Max_cycle;Signal;HPM_P1;HPM_P2
2022/03/28 00:00:02;;;;;;;15.57;8.65;;;;;;;;;;5044272;28;20024;-68
2022/03/28 00:02:47;;;;;;;16.33;8.48;;;;;;;;;;5050137;28;20128;-67
2022/03/28 00:05:33;;;;;;;15.07;8.55;;;;;;;;;;5032208;28;20631;-67
2022/03/28 00:08:18;;;;;;;17.55;9.27;;;;;;;;;;5054555;28;20059;-68
2022/03/28 00:11:04;;;;;;;14.93;8.20;;;;;;;;;;5048076;28;20602;-68
2022/03/28 00:13:49;;;;;;;18.80;8.88;;;;;;;;;;5049594;28;20068;-67
2022/03/28 00:16:34;;;;;;;15.15;8.02;;;;;;;;;;5033137;28;20040;-63
2022/03/28 00:19:20;;;;;;;16.45;9.30;;;;;;;;;;5055984;28;20455;-70
2022/03/28 00:22:05;;;;;;;22.33;10.15;;;;;;;;;;5049142;28;20055;-70
2022/03/28 00:24:50;;;;;;;15.68;8.00;;;;;;;;;;5046931;28;20077;-70
2022/03/28 00:27:35;;;;;;;15.10;9.15;;;;;;;;;;5046940;28;20024;-69
2022/03/28 00:30:21;;;;;;;14.75;8.60;;;;;;;;;;5054233;28;20024;-70
2022/03/28 00:33:06;;;;;;;22.23;8.88;;;;;;;;;;5037142;28;20129;-69
2022/03/28 00:35:51;;;;;;;15.88;8.27;;;;;;;;;;5045377;28;20534;-66
2022/03/28 00:38:37;;;;;;;17.13;9.00;;;;;;;;;;5035307;28;20123;-67
2022/03/28 00:41:22;;;;;;;17.88;7.82;;;;;;;;;;5034200;28;20087;-67
2022/03/28 00:44:07;;;;;;;15.40;8.77;;;;;;;;;;5047021;28;20445;-66
2022/03/28 00:46:52;;;;;;;18.83;8.82;;;;;;;;;;5048024;28;21979;-66
2022/03/28 00:49:38;;;;;;;15.35;8.95;;;;;;;;;;5038268;28;20316;-65
2022/03/28 00:52:24;;;;;;;15.23;8.75;;;;;;;;;;5042405;28;20021;-62
2022/03/28 00:55:09;;;;;;;18.13;8.10;;;;;;;;;;5032343;28;20084;-64
2022/03/28 00:57:54;;;;;;;14.38;8.68;;;;;;;;;;5037251;28;20499;-62
2022/03/28 01:00:40;;;;;;;17.60;8.98;;;;;;;;;;5049052;28;20533;-67
2022/03/28 01:03:25;;;;;;;15.48;8.57;;;;;;;;;;5039728;28;20028;-64
2022/03/28 01:06:11;;;;;;;18.77;10.23;;;;;;;;;;5041871;28;20236;-63
2022/03/28 01:08:56;;;;;;;16.05;8.55;;;;;;;;;;5015336;28;20091;-64
2022/03/28 01:11:43;;;;;;;16.17;8.73;;;;;;;;;;5034416;28;20034;-68
2022/03/28 01:14:28;;;;;;;18.45;8.98;;;;;;;;;;5029563;28;20078;-70
2022/03/28 01:20:17;;;;;;;15.68;8.20;;;;;;;;;;5032739;28;20037;-70
2022/03/28 01:23:03;;;;;;;16.33;9.00;;;;;;;;;;5040093;28;20021;-68
2022/03/28 01:25:52;;;;;;;18.60;9.27;;;;;;;;;;5031300;28;20040;-69
2022/03/28 01:28:37;;;;;;;16.08;8.48;;;;;;;;;;5029127;28;20083;-71
2022/03/28 01:31:23;;;;;;;17.83;9.13;;;;;;;;;;5031584;28;20021;-62
2022/03/28 01:34:18;;;;;;;14.38;8.07;;;;;;;;;;5029242;28;20483;-66
2022/03/28 01:37:04;;;;;;;16.95;8.70;;;;;;;;;;5030039;28;20069;-64
2022/03/28 01:39:49;;;;;;;16.40;8.73;;;;;;;;;;5028039;28;20052;-63
2022/03/28 01:42:34;;;;;;;16.42;8.00;;;;;;;;;;5030827;28;20561;-64
2022/03/28 01:45:20;;;;;;;16.38;8.90;;;;;;;;;;5026631;28;20049;-65
2022/03/28 01:48:05;;;;;;;15.18;9.30;;;;;;;;;;5034273;28;20092;-64
2022/03/28 01:50:50;;;;;;;19.83;9.90;;;;;;;;;;5029603;28;20332;-69
2022/03/28 01:53:36;;;;;;;17.60;8.88;;;;;;;;;;5039377;28;20484;-69
2022/03/28 01:56:21;;;;;;;17.13;9.18;;;;;;;;;;5031589;28;20091;-70
2022/03/28 01:59:07;;;;;;;17.27;8.55;;;;;;;;;;5030924;28;20326;-69
2022/03/28 02:01:53;;;;;;;16.98;8.48;;;;;;;;;;5029623;28;20044;-69
2022/03/28 02:04:38;;;;;;;17.20;9.05;;;;;;;;;;5034060;28;20026;-61
2022/03/28 02:07:23;;;;;;;18.10;8.65;;;;;;;;;;5042022;28;20259;-60
2022/03/28 02:10:09;;;;;;;16.02;8.07;;;;;;;;;;5041981;28;20029;-61
2022/03/28 02:12:54;;;;;;;16.60;9.85;;;;;;;;;;5030780;28;20032;-62
2022/03/28 02:15:40;;;;;;;16.98;8.35;;;;;;;;;;5036120;28;20050;-60
2022/03/28 02:18:25;;;;;;;18.98;9.23;;;;;;;;;;5025319;28;20403;-61
2022/03/28 02:21:10;;;;;;;14.02;8.32;;;;;;;;;;5014399;28;20033;-64
2022/03/28 02:23:55;;;;;;;20.52;8.77;;;;;;;;;;5035913;28;20032;-64
2022/03/28 02:26:41;;;;;;;16.08;8.43;;;;;;;;;;5033955;28;20054;-63
2022/03/28 02:29:26;;;;;;;17.80;8.50;;;;;;;;;;5042949;28;20107;-64
2022/03/28 02:32:12;;;;;;;16.45;9.20;;;;;;;;;;5039932;28;20029;-64
2022/03/28 02:34:57;;;;;;;14.98;9.18;;;;;;;;;;5053318;28;20048;-63
2022/03/28 02:37:43;;;;;;;16.45;8.52;;;;;;;;;;5044923;28;20560;-62
2022/03/28 02:40:29;;;;;;;14.60;8.25;;;;;;;;;;5038419;28;20020;-63
2022/03/28 02:43:14;;;;;;;16.27;9.18;;;;;;;;;;5037297;28;20032;-68
2022/03/28 02:45:59;;;;;;;19.85;9.98;;;;;;;;;;5035576;28;20032;-66
2022/03/28 02:48:44;;;;;;;15.75;9.45;;;;;;;;;;5031560;28;20037;-66
2022/03/28 02:51:30;;;;;;;17.83;9.27;;;;;;;;;;5037164;28;20088;-68
2022/03/28 02:54:15;;;;;;;17.65;8.50;;;;;;;;;;5028097;28;20025;-66
2022/03/28 02:57:00;;;;;;;19.33;9.43;;;;;;;;;;5031549;28;20034;-67
2022/03/28 02:59:45;;;;;;;20.20;9.63;;;;;;;;;;5044532;28;20386;-65
2022/03/28 03:02:31;;;;;;;16.65;9.40;;;;;;;;;;5017603;28;20127;-62
2022/03/28 03:05:16;;;;;;;18.15;9.07;;;;;;;;;;5037531;28;20053;-69
2022/03/28 03:08:01;;;;;;;16.13;9.05;;;;;;;;;;5018811;28;20039;-68
2022/03/28 03:10:46;;;;;;;17.70;8.73;;;;;;;;;;5049328;28;20036;-69
2022/03/28 03:13:31;;;;;;;14.80;8.85;;;;;;;;;;5037784;28;20131;-69
2022/03/28 03:16:17;;;;;;;14.43;7.95;;;;;;;;;;5033730;28;20041;-69
2022/03/28 03:19:03;;;;;;;15.30;8.77;;;;;;;;;;5039319;28;20062;-62
2022/03/28 03:21:48;;;;;;;18.00;9.18;;;;;;;;;;5060732;28;20033;-63
2022/03/28 03:24:34;;;;;;;19.45;8.60;;;;;;;;;;5034192;28;20388;-63
2022/03/28 03:27:19;;;;;;;18.73;8.88;;;;;;;;;;5043001;28;20350;-64
2022/03/28 03:30:06;;;;;;;18.85;9.18;;;;;;;;;;5038118;28;20537;-64
2022/03/28 03:32:51;;;;;;;19.90;9.27;;;;;;;;;;5049306;28;20537;-61
2022/03/28 03:35:36;;;;;;;18.15;9.82;;;;;;;;;;5050384;28;20044;-65
2022/03/28 03:38:22;;;;;;;23.25;9.65;;;;;;;;;;5050512;28;20074;-63
2022/03/28 03:41:07;;;;;;;21.80;9.48;;;;;;;;;;5049452;28;20048;-62
2022/03/28 03:43:52;;;;;;;17.80;8.98;;;;;;;;;;5046942;28;20247;-61
2022/03/28 03:46:38;;;;;;;24.08;10.98;;;;;;;;;;5055075;28;20036;-61
2022/03/28 03:49:23;;;;;;;18.17;9.07;;;;;;;;;;5042924;28;20356;-60
2022/03/28 03:52:10;;;;;;;17.73;9.25;;;;;;;;;;5047344;28;20102;-61
2022/03/28 03:54:55;;;;;;;16.92;9.98;;;;;;;;;;5033601;28;20464;-61
2022/03/28 03:57:40;;;;;;;19.80;9.57;;;;;;;;;;5041540;28;20127;-63
2022/03/28 04:00:25;;;;;;;19.25;9.48;;;;;;;;;;5040095;28;20037;-60
2022/03/28 04:03:11;;;;;;;20.15;9.85;;;;;;;;;;5039315;28;20101;-61
2022/03/28 04:05:56;;;;;;;17.40;9.18;;;;;;;;;;5037392;28;20411;-64
2022/03/28 04:08:42;;;;;;;17.55;10.77;;;;;;;;;;5054267;28;20032;-60
2022/03/28 04:11:27;;;;;;;17.85;9.68;;;;;;;;;;5046319;28;20379;-60
2022/03/28 04:14:12;;;;;;;20.83;10.07;;;;;;;;;;5042596;28;20037;-63
2022/03/28 04:16:58;;;;;;;17.23;10.07;;;;;;;;;;5047489;28;20119;-67
2022/03/28 04:19:43;;;;;;;15.15;8.45;;;;;;;;;;5036267;28;20025;-65
2022/03/28 04:22:28;;;;;;;18.83;9.23;;;;;;;;;;5045551;28;20060;-65
2022/03/28 04:25:14;;;;;;;19.40;9.93;;;;;;;;;;5036191;28;20032;-66
2022/03/28 04:27:59;;;;;;;18.67;10.20;;;;;;;;;;5030439;28;20426;-64
2022/03/28 04:30:45;;;;;;;18.55;9.73;;;;;;;;;;5042941;28;20182;-64
2022/03/28 04:33:30;;;;;;;21.27;9.80;;;;;;;;;;5052231;28;20025;-62
2022/03/28 04:36:15;;;;;;;20.02;9.68;;;;;;;;;;5040295;28;20032;-63
2022/03/28 04:39:01;;;;;;;17.67;10.68;;;;;;;;;;5046665;28;20036;-63
2022/03/28 04:41:46;;;;;;;16.70;9.23;;;;;;;;;;5051460;28;20399;-64
2022/03/28 04:44:31;;;;;;;22.83;11.32;;;;;;;;;;5049336;28;20121;-64
2022/03/28 04:47:17;;;;;;;19.40;9.73;;;;;;;;;;5045164;28;20424;-66
2022/03/28 04:50:03;;;;;;;16.02;9.30;;;;;;;;;;5030286;28;20090;-63
2022/03/28 04:52:48;;;;;;;32.08;10.73;;;;;;;;;;5043646;28;20016;-64
2022/03/28 04:55:34;;;;;;;20.10;10.95;;;;;;;;;;5038925;28;20045;-61
2022/03/28 04:58:19;;;;;;;21.17;11.48;;;;;;;;;;5035248;28;20036;-61
2022/03/28 05:01:04;;;;;;;20.10;10.40;;;;;;;;;;5045742;28;20036;-62
2022/03/28 05:03:50;;;;;;;21.73;10.90;;;;;;;;;;5043273;28;20031;-61
2022/03/28 05:06:35;;;;;;;19.42;10.05;;;;;;;;;;5023806;28;20103;-62
2022/03/28 05:09:20;;;;;;;17.35;9.20;;;;;;;;;;5041891;28;20104;-63
2022/03/28 05:12:06;;;;;;;21.40;11.32;;;;;;;;;;5033584;28;20368;-65
2022/03/28 05:14:52;;;;;;;24.42;11.43;;;;;;;;;;5036835;28;20033;-63
2022/03/28 05:17:37;;;;;;;22.02;10.30;;;;;;;;;;5029276;28;20041;-62
2022/03/28 05:20:22;;;;;;;24.23;10.88;;;;;;;;;;5034907;28;20468;-66
2022/03/28 05:23:07;;;;;;;24.75;10.90;;;;;;;;;;5029262;28;20076;-63
2022/03/28 05:25:53;;;;;;;19.85;10.10;;;;;;;;;;5029372;28;20026;-63
2022/03/28 05:28:38;;;;;;;20.35;11.95;;;;;;;;;;5028511;28;20037;-62
2022/03/28 05:31:23;;;;;;;21.73;10.77;;;;;;;;;;5038441;28;20525;-63
2022/03/28 05:34:09;;;;;;;20.02;10.43;;;;;;;;;;5033142;28;20033;-64
2022/03/28 05:36:54;;;;;;;18.55;10.40;;;;;;;;;;5030662;28;20077;-64
2022/03/28 05:39:39;;;;;;;18.98;11.65;;;;;;;;;;5032653;28;20028;-62
2022/03/28 05:42:25;;;;;;;21.60;11.02;;;;;;;;;;5015189;28;20025;-64
2022/03/28 05:45:11;;;;;;;19.38;9.80;;;;;;;;;;5029409;28;20436;-69
2022/03/28 05:47:56;;;;;;;21.77;10.55;;;;;;;;;;5030451;28;20448;-70
2022/03/28 05:50:41;;;;;;;21.17;10.75;;;;;;;;;;5030195;28;20037;-64
2022/03/28 05:53:27;;;;;;;18.40;10.43;;;;;;;;;;5024039;28;20033;-64
2022/03/28 05:56:12;;;;;;;24.73;11.10;;;;;;;;;;5027514;28;20049;-63
2022/03/28 05:58:57;;;;;;;24.17;12.15;;;;;;;;;;5026739;28;20036;-64
2022/03/28 06:01:43;;;;;;;22.13;11.20;;;;;;;;;;5018694;28;20112;-64
2022/03/28 06:04:28;;;;;;;18.98;10.13;;;;;;;;;;5011754;28;20034;-68
2022/03/28 06:07:13;;;;;;;22.65;10.30;;;;;;;;;;5028867;28;20045;-62
2022/03/28 06:09:59;;;;;;;20.33;11.85;;;;;;;;;;5028005;28;20522;-61
2022/03/28 06:12:44;;;;;;;20.98;12.40;;;;;;;;;;5024800;28;20435;-60
2022/03/28 06:15:32;;;;;;;29.40;12.63;;;;;;;;;;5007284;28;20040;-61
2022/03/28 06:18:17;;;;;;;21.73;11.00;;;;;;;;;;5024664;28;20026;-61
2022/03/28 06:21:03;;;;;;;28.55;12.20;;;;;;;;;;5025691;28;20037;-61
2022/03/28 06:23:48;;;;;;;21.85;10.93;;;;;;;;;;5026617;28;20396;-62
2022/03/28 06:26:33;;;;;;;24.58;12.60;;;;;;;;;;5020955;28;20025;-59
2022/03/28 06:29:18;;;;;;;20.92;11.98;;;;;;;;;;5026355;28;20067;-59
2022/03/28 06:32:04;;;;;;;28.73;12.30;;;;;;;;;;5029731;28;20041;-58
2022/03/28 06:34:52;;;;;;;22.63;13.23;;;;;;;;;;5028979;28;20021;-63
2022/03/28 06:37:37;;;;;;;23.23;11.68;;;;;;;;;;5030198;28;20056;-61
2022/03/28 06:40:23;;;;;;;25.17;11.82;;;;;;;;;;5030467;28;20079;-69
2022/03/28 06:43:09;;;;;;;20.60;11.90;;;;;;;;;;5030764;28;20100;-65
2022/03/28 06:45:54;;;;;;;27.50;12.57;;;;;;;;;;5026317;28;20056;-63
2022/03/28 06:48:40;;;;;;;20.27;11.18;;;;;;;;;;5026632;28;20080;-63
2022/03/28 06:51:25;;;;;;;26.05;11.15;;;;;;;;;;5029275;28;20439;-65
2022/03/28 06:54:14;;;;;;;26.75;11.93;;;;;;;;;;5013689;28;20095;-63
2022/03/28 06:57:00;;;;;;;22.60;12.30;;;;;;;;;;5029166;28;20396;-65
2022/03/28 06:59:45;;;;;;;26.67;11.90;;;;;;;;;;5036896;28;20377;-65
2022/03/28 07:02:30;;;;;;;25.58;13.27;;;;;;;;;;5028981;28;20040;-62
2022/03/28 07:05:16;;;;;;;27.60;12.30;;;;;;;;;;5033349;28;20540;-61
2022/03/28 07:08:01;;;;;;;21.70;13.13;;;;;;;;;;5035557;28;20390;-61
2022/03/28 07:10:46;;;;;;;24.48;11.75;;;;;;;;;;5033124;28;20040;-61
2022/03/28 07:13:32;;;;;;;24.80;11.55;;;;;;;;;;5033808;28;20272;-60
2022/03/28 07:16:17;;;;;;;22.85;11.63;;;;;;;;;;5039052;28;20200;-61
2022/03/28 07:19:03;;;;;;;23.38;11.95;;;;;;;;;;5038120;28;20044;-63
2022/03/28 07:21:48;;;;;;;21.08;12.43;;;;;;;;;;5038089;28;20036;-63
2022/03/28 07:24:33;;;;;;;23.60;12.00;;;;;;;;;;5039486;28;20036;-59
2022/03/28 07:27:19;;;;;;;21.33;11.93;;;;;;;;;;5035297;28;20036;-63
2022/03/28 07:30:05;;;;;;;25.05;12.70;;;;;;;;;;5036460;28;20040;-62
2022/03/28 07:32:51;;;;;;;24.52;13.48;;;;;;;;;;5039018;28;20380;-65
2022/03/28 07:35:37;;;;;;;31.83;12.55;;;;;;;;;;5023829;28;20032;-63
2022/03/28 07:38:22;;;;;;;24.27;13.13;;;;;;;;;;5033989;28;20087;-68
2022/03/28 07:41:07;;;;;;;25.88;11.85;;;;;;;;;;5035319;28;20123;-63
2022/03/28 07:43:52;;;;;;;26.20;12.02;;;;;;;;;;5036058;28;20484;-66
2022/03/28 07:46:38;;;;;;;26.17;12.18;;;;;;;;;;5031433;28;20120;-67
2022/03/28 07:49:24;;;;;;;24.27;12.73;;;;;;;;;;5041428;28;20041;-64
2022/03/28 07:52:09;;;;;;;24.48;12.60;;;;;;;;;;5035268;28;20480;-64
2022/03/28 07:54:55;;;;;;;24.90;11.63;;;;;;;;;;5042515;28;20405;-65
2022/03/28 07:57:40;;;;;;;21.05;13.73;;;;;;;;;;5038935;28;20037;-64
2022/03/28 08:00:26;;;;;;;27.08;14.10;;;;;;;;;;5042962;28;20033;-64
2022/03/28 08:03:11;;;;;;;24.35;12.40;;;;;;;;;;5046189;28;20024;-67
2022/03/28 08:05:57;;;;;;;26.90;12.90;;;;;;;;;;5043339;28;20041;-67
2022/03/28 08:08:42;;;;;;;24.83;12.65;;;;;;;;;;5033999;28;20399;-66
2022/03/28 08:11:27;;;;;;;20.65;12.70;;;;;;;;;;5037314;28;20087;-67
2022/03/28 08:14:12;;;;;;;23.42;13.23;;;;;;;;;;5038303;28;20071;-50
2022/03/28 08:16:58;;;;;;;20.48;12.43;;;;;;;;;;5051716;28;20033;-63
2022/03/28 08:19:43;;;;;;;24.63;12.90;;;;;;;;;;5034742;28;20345;-67
2022/03/28 08:22:28;;;;;;;21.52;12.43;;;;;;;;;;5035075;28;20043;-63
2022/03/28 08:25:14;;;;;;;21.77;13.88;;;;;;;;;;5044491;28;20032;-64
2022/03/28 08:27:59;;;;;;;22.38;12.85;;;;;;;;;;5035715;28;20112;-62
2022/03/28 08:30:45;;;;;;;28.50;13.93;;;;;;;;;;5037331;28;20038;-65
2022/03/28 08:33:30;;;;;;;25.90;14.43;;;;;;;;;;5035663;28;20025;-67
2022/03/28 08:36:15;;;;;;;23.10;12.93;;;;;;;;;;5042150;28;20091;-71
2022/03/28 08:39:00;;;;;;;24.52;14.88;;;;;;;;;;5037970;28;20115;-72
2022/03/28 08:41:46;;;;;;;23.80;14.82;;;;;;;;;;5026184;28;20227;-72
2022/03/28 08:44:32;;;;;;;22.75;13.00;;;;;;;;;;5047423;28;20347;-71
2022/03/28 08:47:18;;;;;;;24.48;14.88;;;;;;;;;;5042744;28;20028;-72
2022/03/28 08:50:04;;;;;;;25.83;15.38;;;;;;;;;;5037965;28;20033;-66
2022/03/28 08:52:49;;;;;;;22.42;14.60;;;;;;;;;;5051226;28;20032;-71
2022/03/28 08:55:35;;;;;;;25.40;14.30;;;;;;;;;;5037201;28;20037;-74
2022/03/28 08:58:20;;;;;;;25.42;14.48;;;;;;;;;;5033849;28;20072;-75
2022/03/28 09:01:05;;;;;;;28.00;14.75;;;;;;;;;;5044854;28;20036;-74
2022/03/28 09:03:51;;;;;;;28.05;15.07;;;;;;;;;;5047337;28;20440;-72
2022/03/28 09:06:42;;;;;;;37.97;16.65;;;;;;;;;;5046043;28;20148;-75
2022/03/28 09:09:29;;;;;;;28.88;15.00;;;;;;;;;;5049325;28;20132;-74
2022/03/28 09:12:14;;;;;;;27.65;15.88;;;;;;;;;;5044707;28;20036;-72
2022/03/28 09:15:04;;;;;;;26.55;15.48;;;;;;;;;;5046873;28;20039;-74
2022/03/28 09:17:56;;;;;;;29.35;16.52;;;;;;;;;;5026859;28;20052;-74
2022/03/28 09:20:46;;;;;;;34.05;16.25;;;;;;;;;;5044239;28;20396;-72
2022/03/28 09:23:38;;;;;;;26.63;15.65;;;;;;;;;;5037950;28;20093;-74
2022/03/28 09:26:24;;;;;;;30.15;16.05;;;;;;;;;;5047406;28;20067;-73
2022/03/28 09:29:09;;;;;;;30.73;16.67;;;;;;;;;;5044312;28;20020;-62
2022/03/28 09:31:54;;;;;;;22.80;16.00;;;;;;;;;;5033144;28;20052;-66
2022/03/28 09:34:39;;;;;;;34.17;15.48;;;;;;;;;;5043985;28;20020;-65
2022/03/28 09:37:26;;;;;;;29.85;16.92;;;;;;;;;;5045783;28;20190;-64
2022/03/28 09:40:34;;;;;;;28.58;16.77;;;;;;;;;;5035309;28;20044;-64
2022/03/28 09:43:24;;;;;;;22.23;15.30;;;;;;;;;;5045757;28;20029;-63
2022/03/28 09:46:09;;;;;;;32.97;17.83;;;;;;;;;;5051546;28;20039;-67
2022/03/28 09:48:57;;;;;;;24.77;15.38;;;;;;;;;;5029126;28;20553;-65
2022/03/28 09:51:43;;;;;;;31.05;16.85;;;;;;;;;;5038880;28;20052;-63
2022/03/28 09:54:30;;;;;;;25.75;15.88;;;;;;;;;;5034239;28;20036;-64
2022/03/28 09:57:17;;;;;;;25.10;16.77;;;;;;;;;;5035684;28;20551;-63
2022/03/28 10:00:10;;;;;;;27.73;17.27;;;;;;;;;;5031973;28;20335;-64
2022/03/28 10:02:58;;;;;;;25.40;17.58;;;;;;;;;;5039511;28;20051;-66
2022/03/28 10:05:43;;;;;;;27.77;17.63;;;;;;;;;;5035483;28;20584;-66
2022/03/28 10:08:29;;;;;;;30.48;17.85;;;;;;;;;;5026284;28;20100;-64
2022/03/28 10:11:16;;;;;;;31.05;16.48;;;;;;;;;;5032971;28;20040;-69
2022/03/28 10:14:01;;;;;;;30.50;17.23;;;;;;;;;;5031207;28;20151;-66
2022/03/28 10:16:47;;;;;;;37.75;19.95;;;;;;;;;;5033031;28;20693;-65
2022/03/28 10:19:33;;;;;;;59.92;28.85;;;;;;;;;;5045348;28;20032;-66
2022/03/28 10:22:24;;;;;;;36.42;20.90;;;;;;;;;;5038789;28;20037;-70
2022/03/28 10:25:11;;;;;;;37.30;19.67;;;;;;;;;;5030991;28;20025;-60
2022/03/28 10:27:56;;;;;;;33.58;19.27;;;;;;;;;;5021819;28;20116;-62
2022/03/28 10:30:44;;;;;;;26.92;18.48;;;;;;;;;;5022154;28;20037;-59
2022/03/28 10:33:29;;;;;;;28.00;16.73;;;;;;;;;;5024525;28;20469;-59
2022/03/28 10:36:27;;;;;;;25.05;17.70;;;;;;;;;;5025852;28;20041;-58
2022/03/28 10:39:31;;;;;;;33.72;19.45;;;;;;;;;;5028344;28;20480;-61
2022/03/28 10:42:17;;;;;;;26.65;18.27;;;;;;;;;;5029222;28;20477;-69
2022/03/28 10:45:04;;;;;;;26.55;17.48;;;;;;;;;;5018309;28;20635;-58
2022/03/28 10:47:50;;;;;;;28.88;18.40;;;;;;;;;;5031606;28;20036;-57
2022/03/28 10:50:54;;;;;;;25.85;16.92;;;;;;;;;;5036152;28;20120;-57
2022/03/28 10:53:46;;;;;;;23.70;16.40;;;;;;;;;;5038058;28;20411;-55
2022/03/28 10:56:32;;;;;;;31.42;18.25;;;;;;;;;;5030955;28;20040;-57
2022/03/28 10:59:19;;;;;;;26.25;17.42;;;;;;;;;;5037729;28;20021;-69
2022/03/28 11:02:24;;;;;;;26.55;19.23;;;;;;;;;;5026138;28;20032;-71
2022/03/28 11:05:12;;;;;;;23.48;17.73;;;;;;;;;;5045098;28;20148;-71
2022/03/28 11:08:10;;;;;;;27.93;18.97;;;;;;;;;;5031535;28;20555;-71
2022/03/28 11:11:14;;;;;;;31.73;17.98;;;;;;;;;;5031796;28;20377;-67
2022/03/28 11:13:59;;;;;;;30.70;17.52;;;;;;;;;;5030257;28;20035;-69
2022/03/28 11:16:51;;;;;;;25.55;18.17;;;;;;;;;;5032583;28;20037;-59
2022/03/28 11:19:50;;;;;;;26.92;16.70;;;;;;;;;;5033992;28;20025;-61
2022/03/28 11:22:35;;;;;;;;;;;;;;;;;;5040825;28;20036;-65
2022/03/28 11:25:26;;;;;;;30.85;17.27;;;;;;;;;;5036475;28;19991;-62
2022/03/28 11:28:12;;;;;;;26.88;17.23;;;;;;;;;;5035006;28;20017;-62
2022/03/28 11:31:08;;;;;;;23.33;16.45;;;;;;;;;;5036126;28;20617;-63
2022/03/28 11:33:55;;;;;;;27.60;17.73;;;;;;;;;;5051929;28;20041;-62
2022/03/28 11:36:42;;;;;;;27.60;17.60;;;;;;;;;;5036233;28;20268;-58
2022/03/28 11:39:27;;;;;;;26.00;16.38;;;;;;;;;;5034270;28;20376;-57
2022/03/28 11:42:13;;;;;;;26.38;16.48;;;;;;;;;;5033956;28;20029;-59
2022/03/28 11:45:08;;;;;;;26.20;16.83;;;;;;;;;;5048500;28;20032;-59
2022/03/28 11:47:54;;;;;;;29.75;19.17;;;;;;;;;;5048971;28;20024;-61
2022/03/28 11:50:40;;;;;;;29.95;17.42;;;;;;;;;;5035399;28;20468;-62
2022/03/28 11:53:26;;;;;;;23.20;16.80;;;;;;;;;;5028647;28;20149;-68
2022/03/28 11:56:20;;;;;;;25.88;16.90;;;;;;;;;;5032368;28;20025;-68
2022/03/28 11:59:07;;;;;;;24.92;17.15;;;;;;;;;;5036931;28;20032;-62
2022/03/28 12:01:59;;;;;;;26.35;17.38;;;;;;;;;;5027021;28;20029;-59
2022/03/28 12:04:45;;;;;;;26.23;15.88;;;;;;;;;;5033617;28;20028;-59
2022/03/28 12:07:34;;;;;;;27.33;18.00;;;;;;;;;;5037205;28;20048;-61
2022/03/28 12:10:38;;;;;;;24.50;17.13;;;;;;;;;;5034455;28;20036;-60
2022/03/28 12:13:24;;;;;;;28.48;17.25;;;;;;;;;;5032935;28;20111;-67
2022/03/28 12:16:09;;;;;;;25.77;18.23;;;;;;;;;;5031200;28;20033;-64
2022/03/28 12:18:58;;;;;;;32.08;18.60;;;;;;;;;;5034441;28;20024;-64
2022/03/28 12:21:43;;;;;;;27.48;17.95;;;;;;;;;;5035403;28;20405;-65
2022/03/28 12:24:29;;;;;;;28.42;18.85;;;;;;;;;;5047902;28;20037;-62
2022/03/28 12:27:17;;;;;;;30.23;18.33;;;;;;;;;;5034310;28;20479;-61
2022/03/28 12:30:04;;;;;;;27.95;17.88;;;;;;;;;;5033946;28;20036;-65
2022/03/28 12:32:50;;;;;;;26.67;18.83;;;;;;;;;;5047661;28;20064;-64
2022/03/28 12:35:39;;;;;;;26.65;17.48;;;;;;;;;;5033368;28;20068;-60
2022/03/28 12:38:44;;;;;;;29.88;19.08;;;;;;;;;;5048258;28;20045;-59
2022/03/28 12:41:29;;;;;;;27.02;16.05;;;;;;;;;;5033221;28;20041;-59
2022/03/28 12:44:16;;;;;;;28.85;18.40;;;;;;;;;;5033559;28;20039;-59
2022/03/28 12:47:04;;;;;;;28.80;18.75;;;;;;;;;;5044603;28;20052;-58
2022/03/28 12:49:53;;;;;;;29.38;18.10;;;;;;;;;;5033115;28;20387;-68
2022/03/28 12:52:39;;;;;;;31.83;17.23;;;;;;;;;;5034253;28;20127;-61
2022/03/28 12:55:25;;;;;;;25.35;16.58;;;;;;;;;;5032943;28;20368;-60
2022/03/28 12:58:11;;;;;;;27.67;16.60;;;;;;;;;;5024769;28;20051;-60
2022/03/28 13:01:01;;;;;;;26.42;16.88;;;;;;;;;;5036373;28;20025;-59
2022/03/28 13:03:47;;;;;;;28.83;17.90;;;;;;;;;;5029210;28;20029;-59
2022/03/28 13:06:33;;;;;;;23.90;16.67;;;;;;;;;;5032797;28;20119;-59
2022/03/28 13:09:19;;;;;;;26.58;16.60;;;;;;;;;;5028422;28;20029;-66
2022/03/28 13:12:08;;;;;;;26.33;15.40;;;;;;;;;;5021233;28;20036;-58
2022/03/28 13:14:53;;;;;;;23.77;14.27;;;;;;;;;;5042697;28;20052;-60
2022/03/28 13:17:43;;;;;;;24.00;15.27;;;;;;;;;;5027642;28;20392;-63
2022/03/28 13:20:29;;;;;;;23.98;15.45;;;;;;;;;;5031868;28;20096;-60
2022/03/28 13:23:24;;;;;;;24.83;14.18;;;;;;;;;;5033674;28;20029;-61
2022/03/28 13:26:14;;;;;;;21.50;13.75;;;;;;;;;;5031893;28;20033;-60
2022/03/28 13:28:59;;;;;;;;;;;;;;;;;;5047971;28;20047;-67
2022/03/28 13:31:45;;;;;;;21.30;13.45;;;;;;;;;;5032833;28;19935;-66
2022/03/28 13:34:30;;;;;;;23.80;13.32;;;;;;;;;;5033735;28;20430;-64
2022/03/28 13:37:22;;;;;;;20.92;12.70;;;;;;;;;;5030080;28;20033;-64
2022/03/28 13:40:08;;;;;;;20.95;13.45;;;;;;;;;;5031997;28;20063;-65
2022/03/28 13:42:53;;;;;;;20.98;13.15;;;;;;;;;;5024317;28;20046;-65
2022/03/28 13:45:39;;;;;;;20.27;13.35;;;;;;;;;;5031619;28;20790;-61
2022/03/28 13:48:24;;;;;;;16.52;12.10;;;;;;;;;;5045879;28;20037;-67
2022/03/28 13:51:09;;;;;;;20.92;13.65;;;;;;;;;;5033805;28;20107;-66
2022/03/28 13:53:55;;;;;;;21.08;12.38;;;;;;;;;;5029082;28;20434;-65
2022/03/28 13:56:40;;;;;;;22.85;14.00;;;;;;;;;;5032975;28;20051;-63
2022/03/28 13:59:26;;;;;;;19.67;12.52;;;;;;;;;;5031801;28;20072;-64
2022/03/28 14:02:12;;;;;;;22.58;12.63;;;;;;;;;;5033225;28;20396;-64
2022/03/28 14:05:00;;;;;;;22.20;12.77;;;;;;;;;;5032074;28;20480;-62
2022/03/28 14:07:45;;;;;;;20.00;12.25;;;;;;;;;;5026517;28;20037;-64
2022/03/28 14:10:31;;;;;;;20.63;12.60;;;;;;;;;;5027094;28;20481;-66
2022/03/28 14:13:16;;;;;;;18.75;11.75;;;;;;;;;;5021006;28;20025;-75
2022/03/28 14:16:02;;;;;;;20.58;11.70;;;;;;;;;;5025654;28;20033;-69
2022/03/28 14:18:47;;;;;;;20.23;12.43;;;;;;;;;;5025592;28;20037;-70
2022/03/28 14:21:33;;;;;;;18.20;11.73;;;;;;;;;;5025910;28;20025;-52
2022/03/28 14:24:18;;;;;;;18.13;10.60;;;;;;;;;;5027261;28;20168;-48
2022/03/28 14:27:04;;;;;;;17.85;11.30;;;;;;;;;;5027649;28;20112;-48
2022/03/28 14:29:50;;;;;;;18.92;11.48;;;;;;;;;;5027596;28;20044;-54
2022/03/28 14:32:35;;;;;;;20.67;11.75;;;;;;;;;;5027433;28;20033;-50
2022/03/28 14:35:21;;;;;;;15.13;10.70;;;;;;;;;;5026282;28;20029;-48
2022/03/28 14:38:09;;;;;;;16.65;12.02;;;;;;;;;;5026587;28;20376;-48
2022/03/28 14:40:54;;;;;;;17.08;10.70;;;;;;;;;;5050788;28;20037;-55
2022/03/28 14:43:40;;;;;;;18.20;11.02;;;;;;;;;;5019993;28;20428;-65
2022/03/28 14:49:29;;;;;;;18.70;10.77;;;;;;;;;;5025668;28;20037;-67
2022/03/28 14:52:15;;;;;;;18.95;11.38;;;;;;;;;;5029963;28;20045;-64
2022/03/28 14:55:01;;;;;;;15.88;11.32;;;;;;;;;;5038979;28;20022;-65
2022/03/28 14:57:46;;;;;;;14.77;9.85;;;;;;;;;;5036125;28;20041;-61
2022/03/28 15:00:32;;;;;;;17.63;11.95;;;;;;;;;;5032982;28;20512;-55
2022/03/28 15:03:18;;;;;;;20.42;10.98;;;;;;;;;;5033151;28;20030;-53
2022/03/28 15:06:03;;;;;;;22.55;11.32;;;;;;;;;;5035840;28;20116;-55
2022/03/28 15:08:49;;;;;;;18.65;11.40;;;;;;;;;;5049882;28;20064;-54
2022/03/28 15:11:39;;;;;;;17.65;11.35;;;;;;;;;;5026954;28;20037;-55
2022/03/28 15:14:24;;;;;;;19.00;11.25;;;;;;;;;;5034862;28;20029;-59
2022/03/28 15:17:09;;;;;;;18.35;11.20;;;;;;;;;;5038426;28;20539;-64
2022/03/28 15:19:54;;;;;;;17.90;11.30;;;;;;;;;;5020681;28;20032;-60
2022/03/28 15:22:40;;;;;;;15.27;10.02;;;;;;;;;;5036394;28;20047;-62
2022/03/28 15:25:25;;;;;;;20.77;10.38;;;;;;;;;;5031423;28;20091;-57
2022/03/28 15:28:11;;;;;;;13.95;9.57;;;;;;;;;;5032227;28;20112;-59
2022/03/28 15:31:15;;;;;;;16.35;9.93;;;;;;;;;;5019931;28;20065;-60
2022/03/28 15:34:01;;;;;;;16.02;9.95;;;;;;;;;;5032310;28;20026;-56
2022/03/28 15:36:47;;;;;;;15.68;9.48;;;;;;;;;;5023715;28;20563;-58
2022/03/28 15:39:32;;;;;;;17.00;9.50;;;;;;;;;;5042410;28;20029;-47
2022/03/28 15:42:18;;;;;;;13.75;9.38;;;;;;;;;;5040441;28;20029;-49
2022/03/28 15:45:03;;;;;;;15.93;10.07;;;;;;;;;;5046215;28;20108;-55
2022/03/28 15:47:49;;;;;;;14.80;9.48;;;;;;;;;;5023671;28;20042;-49
2022/03/28 15:50:34;;;;;;;15.25;9.18;;;;;;;;;;5037146;28;20446;-49
2022/03/28 15:53:19;;;;;;;19.17;10.13;;;;;;;;;;5024091;28;20476;-64
2022/03/28 15:56:05;;;;;;;17.85;9.73;;;;;;;;;;5037482;28;20013;-66
2022/03/28 15:58:51;;;;;;;16.75;8.85;;;;;;;;;;5038784;28;20040;-62
2022/03/28 16:01:36;;;;;;;15.63;8.95;;;;;;;;;;5034903;28;20114;-61
2022/03/28 16:04:22;;;;;;;13.10;8.82;;;;;;;;;;5031413;28;20022;-62
2022/03/28 16:07:09;;;;;;;20.92;9.30;;;;;;;;;;5044896;28;20420;-61
2022/03/28 16:09:54;;;;;;;15.48;8.40;;;;;;;;;;5049850;28;20029;-61
2022/03/28 16:12:39;;;;;;;15.02;9.02;;;;;;;;;;5045323;28;20112;-69
2022/03/28 16:15:26;;;;;;;15.55;8.30;;;;;;;;;;5045134;28;20032;-62
2022/03/28 16:18:11;;;;;;;16.35;8.27;;;;;;;;;;5045778;28;20047;-60